sensor_id;sensor_type;location;lat;lon;timestamp;temperature;humidity
15949;DHT22;14848;50.954;6.642;2023-05-07T00:02:22;14.30;99.90
15949;DHT22;14848;50.954;6.642;2023-05-07T00:04:48;14.30;99.90
15949;DHT22;14848;50.954;6.642;2023-05-07T00:07:14;14.30;99.90
15949;DHT22;14848;50.954;6.642;2023-05-07T00:09:40;14.30;99.90
15949;DHT22;14848;50.954;6.642;2023-05-07T00:12:08;14.40;99.90
15949;DHT22;14848;50.954;6.642;2023-05-07T00:21:52;14.20;99.90
15949;DHT22;14848;50.954;6.642;2023-05-07T00:24:19;13.80;99.90
15949;DHT22;14848;50.954;6.642;2023-05-07T00:26:45;14.10;99.90
15949;DHT22;14848;50.954;6.642;2023-05-07T00:31:37;14.00;99.90
15949;DHT22;14848;50.954;6.642;2023-05-07T00:34:02;14.10;99.90
15949;DHT22;14848;50.954;6.642;2023-05-07T00:41:22;14.00;99.90
15949;DHT22;14848;50.954;6.642;2023-05-07T00:46:17;14.10;99.90
15949;DHT22;14848;50.954;6.642;2023-05-07T00:48:45;14.20;99.90
15949;DHT22;14848;50.954;6.642;2023-05-07T00:53:37;14.10;99.90
15949;DHT22;14848;50.954;6.642;2023-05-07T00:56:03;14.30;99.90
15949;DHT22;14848;50.954;6.642;2023-05-07T00:58:29;14.30;99.90
15949;DHT22;14848;50.954;6.642;2023-05-07T01:00:55;14.30;99.90
15949;DHT22;14848;50.954;6.642;2023-05-07T01:03:21;14.30;99.90
15949;DHT22;14848;50.954;6.642;2023-05-07T01:05:48;14.30;99.90
15949;DHT22;14848;50.954;6.642;2023-05-07T01:08:15;14.30;99.90
15949;DHT22;14848;50.954;6.642;2023-05-07T01:10:42;14.30;99.90
15949;DHT22;14848;50.954;6.642;2023-05-07T01:13:12;14.30;99.90
15949;DHT22;14848;50.954;6.642;2023-05-07T01:15:39;14.30;99.90
15949;DHT22;14848;50.954;6.642;2023-05-07T01:18:06;14.20;99.90
15949;DHT22;14848;50.954;6.642;2023-05-07T01:20:33;14.20;99.90
15949;DHT22;14848;50.954;6.642;2023-05-07T01:23:00;14.20;99.90
15949;DHT22;14848;50.954;6.642;2023-05-07T01:25:27;14.20;99.90
15949;DHT22;14848;50.954;6.642;2023-05-07T01:27:53;14.20;99.90
15949;DHT22;14848;50.954;6.642;2023-05-07T01:30:20;14.10;99.90
15949;DHT22;14848;50.954;6.642;2023-05-07T01:33:10;14.20;99.90
15949;DHT22;14848;50.954;6.642;2023-05-07T01:35:40;14.20;99.90
15949;DHT22;14848;50.954;6.642;2023-05-07T01:38:08;14.20;99.90
15949;DHT22;14848;50.954;6.642;2023-05-07T01:40:34;14.10;99.90
15949;DHT22;14848;50.954;6.642;2023-05-07T01:43:01;14.20;99.90
15949;DHT22;14848;50.954;6.642;2023-05-07T01:45:27;14.20;99.90
15949;DHT22;14848;50.954;6.642;2023-05-07T01:47:54;14.20;99.90
15949;DHT22;14848;50.954;6.642;2023-05-07T01:50:20;14.20;99.90
15949;DHT22;14848;50.954;6.642;2023-05-07T01:52:47;14.20;99.90
15949;DHT22;14848;50.954;6.642;2023-05-07T01:55:15;14.20;99.90
15949;DHT22;14848;50.954;6.642;2023-05-07T01:57:40;14.20;99.90
15949;DHT22;14848;50.954;6.642;2023-05-07T02:00:07;14.20;99.90
15949;DHT22;14848;50.954;6.642;2023-05-07T02:02:34;14.20;99.90
15949;DHT22;14848;50.954;6.642;2023-05-07T02:05:00;14.20;99.90
15949;DHT22;14848;50.954;6.642;2023-05-07T02:07:26;14.10;99.90
15949;DHT22;14848;50.954;6.642;2023-05-07T02:09:53;15.70;99.90
15949;DHT22;14848;50.954;6.642;2023-05-07T02:12:19;14.10;99.90
15949;DHT22;14848;50.954;6.642;2023-05-07T02:14:44;14.00;99.90
15949;DHT22;14848;50.954;6.642;2023-05-07T02:17:10;13.90;99.90
15949;DHT22;14848;50.954;6.642;2023-05-07T02:19:36;13.90;99.90
15949;DHT22;14848;50.954;6.642;2023-05-07T02:22:02;13.80;99.90
15949;DHT22;14848;50.954;6.642;2023-05-07T02:24:27;13.70;99.90
15949;DHT22;14848;50.954;6.642;2023-05-07T02:26:53;13.80;99.90
15949;DHT22;14848;50.954;6.642;2023-05-07T02:29:19;13.60;99.90
15949;DHT22;14848;50.954;6.642;2023-05-07T02:31:44;13.60;99.90
15949;DHT22;14848;50.954;6.642;2023-05-07T02:34:10;13.60;99.90
15949;DHT22;14848;50.954;6.642;2023-05-07T02:36:36;13.60;99.90
15949;DHT22;14848;50.954;6.642;2023-05-07T02:39:02;13.70;99.90
15949;DHT22;14848;50.954;6.642;2023-05-07T02:41:28;13.70;99.90
15949;DHT22;14848;50.954;6.642;2023-05-07T02:43:54;13.70;99.90
15949;DHT22;14848;50.954;6.642;2023-05-07T02:46:20;13.70;99.90
15949;DHT22;14848;50.954;6.642;2023-05-07T02:48:45;13.70;99.90
15949;DHT22;14848;50.954;6.642;2023-05-07T02:51:11;13.70;99.90
15949;DHT22;14848;50.954;6.642;2023-05-07T02:53:37;13.70;99.90
15949;DHT22;14848;50.954;6.642;2023-05-07T02:56:03;13.70;99.90
15949;DHT22;14848;50.954;6.642;2023-05-07T02:58:28;13.70;99.90
15949;DHT22;14848;50.954;6.642;2023-05-07T03:00:54;13.90;99.90
15949;DHT22;14848;50.954;6.642;2023-05-07T03:03:20;13.80;99.90
15949;DHT22;14848;50.954;6.642;2023-05-07T03:05:46;13.70;99.90
15949;DHT22;14848;50.954;6.642;2023-05-07T03:08:12;13.70;99.90
15949;DHT22;14848;50.954;6.642;2023-05-07T03:10:37;13.70;99.90
15949;DHT22;14848;50.954;6.642;2023-05-07T03:13:03;13.70;99.90
15949;DHT22;14848;50.954;6.642;2023-05-07T03:15:29;13.70;99.90
15949;DHT22;14848;50.954;6.642;2023-05-07T03:17:55;13.60;99.90
15949;DHT22;14848;50.954;6.642;2023-05-07T03:20:21;13.60;99.90
15949;DHT22;14848;50.954;6.642;2023-05-07T03:22:46;13.60;99.90
15949;DHT22;14848;50.954;6.642;2023-05-07T03:25:12;13.70;99.90
15949;DHT22;14848;50.954;6.642;2023-05-07T03:27:39;13.60;99.90
15949;DHT22;14848;50.954;6.642;2023-05-07T03:30:05;13.50;99.90
15949;DHT22;14848;50.954;6.642;2023-05-07T03:32:32;13.50;99.90
15949;DHT22;14848;50.954;6.642;2023-05-07T03:34:58;13.50;99.90
15949;DHT22;14848;50.954;6.642;2023-05-07T03:37:23;13.50;99.90
15949;DHT22;14848;50.954;6.642;2023-05-07T03:39:49;13.50;99.90
15949;DHT22;14848;50.954;6.642;2023-05-07T03:42:15;13.40;99.90
15949;DHT22;14848;50.954;6.642;2023-05-07T03:44:40;13.30;99.90
15949;DHT22;14848;50.954;6.642;2023-05-07T03:47:06;13.30;99.90
15949;DHT22;14848;50.954;6.642;2023-05-07T03:49:32;13.00;99.90
15949;DHT22;14848;50.954;6.642;2023-05-07T03:51:57;13.20;99.90
15949;DHT22;14848;50.954;6.642;2023-05-07T03:54:23;13.30;99.90
15949;DHT22;14848;50.954;6.642;2023-05-07T03:56:49;13.40;99.90
15949;DHT22;14848;50.954;6.642;2023-05-07T03:59:14;13.40;99.90
15949;DHT22;14848;50.954;6.642;2023-05-07T04:01:40;13.30;99.90
15949;DHT22;14848;50.954;6.642;2023-05-07T04:04:06;13.30;99.90
15949;DHT22;14848;50.954;6.642;2023-05-07T04:06:32;13.20;99.90
15949;DHT22;14848;50.954;6.642;2023-05-07T04:08:57;13.30;99.90
15949;DHT22;14848;50.954;6.642;2023-05-07T04:11:23;13.30;99.90
15949;DHT22;14848;50.954;6.642;2023-05-07T04:13:49;13.20;99.90
15949;DHT22;14848;50.954;6.642;2023-05-07T04:16:15;13.30;99.90
15949;DHT22;14848;50.954;6.642;2023-05-07T04:18:41;13.30;99.90
15949;DHT22;14848;50.954;6.642;2023-05-07T04:21:14;13.30;99.90
15949;DHT22;14848;50.954;6.642;2023-05-07T04:23:40;13.30;99.90
15949;DHT22;14848;50.954;6.642;2023-05-07T04:26:05;13.40;99.90
15949;DHT22;14848;50.954;6.642;2023-05-07T04:28:32;13.40;99.90
15949;DHT22;14848;50.954;6.642;2023-05-07T04:30:58;13.50;99.90
15949;DHT22;14848;50.954;6.642;2023-05-07T04:33:23;13.50;99.90
15949;DHT22;14848;50.954;6.642;2023-05-07T04:35:49;13.60;99.90
15949;DHT22;14848;50.954;6.642;2023-05-07T04:38:15;13.70;99.90
15949;DHT22;14848;50.954;6.642;2023-05-07T04:40:41;13.70;99.90
15949;DHT22;14848;50.954;6.642;2023-05-07T04:43:07;13.70;99.90
15949;DHT22;14848;50.954;6.642;2023-05-07T04:45:35;13.80;99.90
15949;DHT22;14848;50.954;6.642;2023-05-07T04:48:00;13.80;99.90
15949;DHT22;14848;50.954;6.642;2023-05-07T04:50:26;14.30;99.90
15949;DHT22;14848;50.954;6.642;2023-05-07T04:52:52;14.00;99.90
15949;DHT22;14848;50.954;6.642;2023-05-07T04:55:17;14.10;99.90
15949;DHT22;14848;50.954;6.642;2023-05-07T04:57:43;14.10;99.90
15949;DHT22;14848;50.954;6.642;2023-05-07T05:00:09;14.00;99.90
15949;DHT22;14848;50.954;6.642;2023-05-07T05:02:35;14.00;99.90
15949;DHT22;14848;50.954;6.642;2023-05-07T05:05:01;14.10;99.90
15949;DHT22;14848;50.954;6.642;2023-05-07T05:07:28;14.20;99.90
15949;DHT22;14848;50.954;6.642;2023-05-07T05:09:54;14.30;99.90
15949;DHT22;14848;50.954;6.642;2023-05-07T05:12:20;14.50;99.90
15949;DHT22;14848;50.954;6.642;2023-05-07T05:14:46;14.50;99.90
15949;DHT22;14848;50.954;6.642;2023-05-07T05:17:12;14.60;99.90
15949;DHT22;14848;50.954;6.642;2023-05-07T05:19:38;14.70;99.90
15949;DHT22;14848;50.954;6.642;2023-05-07T05:22:03;14.60;99.90
15949;DHT22;14848;50.954;6.642;2023-05-07T05:24:30;14.70;99.90
15949;DHT22;14848;50.954;6.642;2023-05-07T05:26:56;14.60;99.90
15949;DHT22;14848;50.954;6.642;2023-05-07T05:29:21;14.40;99.90
15949;DHT22;14848;50.954;6.642;2023-05-07T05:31:47;14.50;99.90
15949;DHT22;14848;50.954;6.642;2023-05-07T05:34:13;14.60;99.90
15949;DHT22;14848;50.954;6.642;2023-05-07T05:36:39;14.60;99.90
15949;DHT22;14848;50.954;6.642;2023-05-07T05:39:05;14.70;99.90
15949;DHT22;14848;50.954;6.642;2023-05-07T05:41:31;14.80;99.90
15949;DHT22;14848;50.954;6.642;2023-05-07T05:43:57;14.80;99.90
15949;DHT22;14848;50.954;6.642;2023-05-07T05:46:22;14.90;99.90
15949;DHT22;14848;50.954;6.642;2023-05-07T05:48:48;15.00;99.90
15949;DHT22;14848;50.954;6.642;2023-05-07T05:51:13;15.10;99.90
15949;DHT22;14848;50.954;6.642;2023-05-07T05:53:39;15.20;99.90
15949;DHT22;14848;50.954;6.642;2023-05-07T05:56:05;15.30;99.90
15949;DHT22;14848;50.954;6.642;2023-05-07T05:58:31;15.40;99.90
15949;DHT22;14848;50.954;6.642;2023-05-07T06:00:57;15.50;99.90
15949;DHT22;14848;50.954;6.642;2023-05-07T06:03:23;15.70;99.90
15949;DHT22;14848;50.954;6.642;2023-05-07T06:05:49;15.90;99.90
15949;DHT22;14848;50.954;6.642;2023-05-07T06:08:14;16.00;99.90
15949;DHT22;14848;50.954;6.642;2023-05-07T06:10:41;16.20;99.90
15949;DHT22;14848;50.954;6.642;2023-05-07T06:13:07;16.40;99.90
15949;DHT22;14848;50.954;6.642;2023-05-07T06:17:59;17.30;99.90
15949;DHT22;14848;50.954;6.642;2023-05-07T06:20:24;17.50;99.90
15949;DHT22;14848;50.954;6.642;2023-05-07T06:22:50;17.60;99.90
15949;DHT22;14848;50.954;6.642;2023-05-07T06:25:16;17.80;99.90
15949;DHT22;14848;50.954;6.642;2023-05-07T06:27:41;18.00;99.90
15949;DHT22;14848;50.954;6.642;2023-05-07T06:30:08;18.00;99.90
15949;DHT22;14848;50.954;6.642;2023-05-07T06:32:34;17.90;99.90
15949;DHT22;14848;50.954;6.642;2023-05-07T06:34:59;17.70;99.90
15949;DHT22;14848;50.954;6.642;2023-05-07T06:37:25;17.70;99.90
15949;DHT22;14848;50.954;6.642;2023-05-07T06:39:51;17.70;99.90
15949;DHT22;14848;50.954;6.642;2023-05-07T06:42:17;17.80;99.90
15949;DHT22;14848;50.954;6.642;2023-05-07T06:44:42;18.00;99.90
15949;DHT22;14848;50.954;6.642;2023-05-07T06:47:08;18.00;99.90
15949;DHT22;14848;50.954;6.642;2023-05-07T06:49:33;17.90;99.90
15949;DHT22;14848;50.954;6.642;2023-05-07T06:51:59;18.00;99.90
15949;DHT22;14848;50.954;6.642;2023-05-07T06:54:25;18.10;99.90
15949;DHT22;14848;50.954;6.642;2023-05-07T06:56:50;18.10;99.90
15949;DHT22;14848;50.954;6.642;2023-05-07T06:59:16;18.10;99.90
15949;DHT22;14848;50.954;6.642;2023-05-07T07:01:42;18.20;99.90
15949;DHT22;14848;50.954;6.642;2023-05-07T07:04:07;18.20;99.90
15949;DHT22;14848;50.954;6.642;2023-05-07T07:08:59;18.40;99.90
15949;DHT22;14848;50.954;6.642;2023-05-07T07:11:25;18.50;99.90
15949;DHT22;14848;50.954;6.642;2023-05-07T07:13:51;18.60;99.90
15949;DHT22;14848;50.954;6.642;2023-05-07T07:16:17;18.60;99.90
15949;DHT22;14848;50.954;6.642;2023-05-07T07:18:42;18.70;99.90
15949;DHT22;14848;50.954;6.642;2023-05-07T07:21:08;18.70;99.90
15949;DHT22;14848;50.954;6.642;2023-05-07T07:23:34;18.70;99.90
15949;DHT22;14848;50.954;6.642;2023-05-07T07:25:59;18.80;99.90
15949;DHT22;14848;50.954;6.642;2023-05-07T07:28:25;18.90;99.90
15949;DHT22;14848;50.954;6.642;2023-05-07T07:30:51;18.90;99.90
15949;DHT22;14848;50.954;6.642;2023-05-07T07:33:16;19.10;99.90
15949;DHT22;14848;50.954;6.642;2023-05-07T07:35:42;19.30;99.90
15949;DHT22;14848;50.954;6.642;2023-05-07T09:50:15;21.10;99.90
15949;DHT22;14848;50.954;6.642;2023-05-07T09:52:42;21.00;99.90
15949;DHT22;14848;50.954;6.642;2023-05-07T09:55:09;21.20;99.90
15949;DHT22;14848;50.954;6.642;2023-05-07T09:57:36;21.30;99.90
15949;DHT22;14848;50.954;6.642;2023-05-07T10:00:03;21.40;99.90
15949;DHT22;14848;50.954;6.642;2023-05-07T10:02:35;21.50;99.90
15949;DHT22;14848;50.954;6.642;2023-05-07T10:05:02;21.60;99.90
15949;DHT22;14848;50.954;6.642;2023-05-07T10:07:29;21.60;99.90
15949;DHT22;14848;50.954;6.642;2023-05-07T10:09:55;21.70;99.90
15949;DHT22;14848;50.954;6.642;2023-05-07T10:12:23;21.90;99.90
15949;DHT22;14848;50.954;6.642;2023-05-07T10:14:50;22.10;99.90
15949;DHT22;14848;50.954;6.642;2023-05-07T10:17:18;22.30;99.90
15949;DHT22;14848;50.954;6.642;2023-05-07T10:19:45;22.50;99.90
15949;DHT22;14848;50.954;6.642;2023-05-07T10:22:11;22.60;99.90
15949;DHT22;14848;50.954;6.642;2023-05-07T10:24:39;22.70;99.90
15949;DHT22;14848;50.954;6.642;2023-05-07T10:27:08;22.80;99.90
15949;DHT22;14848;50.954;6.642;2023-05-07T10:35:00;23.10;99.90
15949;DHT22;14848;50.954;6.642;2023-05-07T10:37:28;23.20;99.90
15949;DHT22;14848;50.954;6.642;2023-05-07T10:39:54;23.10;99.90
15949;DHT22;14848;50.954;6.642;2023-05-07T10:42:20;23.20;99.90
15949;DHT22;14848;50.954;6.642;2023-05-07T10:44:46;23.40;99.90
15949;DHT22;14848;50.954;6.642;2023-05-07T10:47:13;23.40;99.90
15949;DHT22;14848;50.954;6.642;2023-05-07T10:52:21;23.20;99.90
15949;DHT22;14848;50.954;6.642;2023-05-07T10:57:44;23.20;99.90
15949;DHT22;14848;50.954;6.642;2023-05-07T11:05:26;23.20;99.90
15949;DHT22;14848;50.954;6.642;2023-05-07T11:08:00;23.40;99.90
15949;DHT22;14848;50.954;6.642;2023-05-07T11:10:51;23.30;99.90
15949;DHT22;14848;50.954;6.642;2023-05-07T11:13:18;23.20;99.90
15949;DHT22;14848;50.954;6.642;2023-05-07T11:15:45;23.10;99.90
15949;DHT22;14848;50.954;6.642;2023-05-07T11:18:16;23.10;99.90
15949;DHT22;14848;50.954;6.642;2023-05-07T11:20:56;23.10;99.90
15949;DHT22;14848;50.954;6.642;2023-05-07T11:26:08;23.10;99.90
15949;DHT22;14848;50.954;6.642;2023-05-07T11:28:39;23.10;99.90
15949;DHT22;14848;50.954;6.642;2023-05-07T11:31:05;23.30;99.90
15949;DHT22;14848;50.954;6.642;2023-05-07T11:33:31;23.30;99.90
15949;DHT22;14848;50.954;6.642;2023-05-07T11:35:57;23.30;99.90
15949;DHT22;14848;50.954;6.642;2023-05-07T11:38:25;23.30;99.90
15949;DHT22;14848;50.954;6.642;2023-05-07T11:40:51;23.10;99.90
15949;DHT22;14848;50.954;6.642;2023-05-07T11:43:18;23.10;99.90
15949;DHT22;14848;50.954;6.642;2023-05-07T11:45:45;23.00;99.90
15949;DHT22;14848;50.954;6.642;2023-05-07T11:48:12;22.80;99.90
15949;DHT22;14848;50.954;6.642;2023-05-07T11:53:25;22.50;99.90
15949;DHT22;14848;50.954;6.642;2023-05-07T11:55:57;22.70;99.90
15949;DHT22;14848;50.954;6.642;2023-05-07T11:58:24;22.80;99.90
15949;DHT22;14848;50.954;6.642;2023-05-07T12:00:54;23.00;99.90
15949;DHT22;14848;50.954;6.642;2023-05-07T12:03:20;23.00;99.90
15949;DHT22;14848;50.954;6.642;2023-05-07T12:05:47;23.10;99.90
15949;DHT22;14848;50.954;6.642;2023-05-07T12:08:17;23.30;99.90
15949;DHT22;14848;50.954;6.642;2023-05-07T12:10:49;23.10;99.90
15949;DHT22;14848;50.954;6.642;2023-05-07T12:13:25;22.80;99.90
15949;DHT22;14848;50.954;6.642;2023-05-07T12:15:52;23.00;99.90
15949;DHT22;14848;50.954;6.642;2023-05-07T12:18:18;22.80;99.90
15949;DHT22;14848;50.954;6.642;2023-05-07T12:20:44;22.80;99.90
15949;DHT22;14848;50.954;6.642;2023-05-07T12:23:10;22.70;99.90
15949;DHT22;14848;50.954;6.642;2023-05-07T12:25:38;22.70;99.90
15949;DHT22;14848;50.954;6.642;2023-05-07T12:28:05;22.50;99.90
15949;DHT22;14848;50.954;6.642;2023-05-07T12:30:38;22.40;99.90
15949;DHT22;14848;50.954;6.642;2023-05-07T12:33:04;22.20;99.90
15949;DHT22;14848;50.954;6.642;2023-05-07T12:35:31;22.20;99.90
15949;DHT22;14848;50.954;6.642;2023-05-07T12:37:58;22.20;99.90
15949;DHT22;14848;50.954;6.642;2023-05-07T12:40:41;22.20;99.90
15949;DHT22;14848;50.954;6.642;2023-05-07T12:43:08;22.30;99.90
15949;DHT22;14848;50.954;6.642;2023-05-07T12:45:41;22.40;99.90
15949;DHT22;14848;50.954;6.642;2023-05-07T12:48:07;22.40;99.90
15949;DHT22;14848;50.954;6.642;2023-05-07T12:50:34;22.30;99.90
15949;DHT22;14848;50.954;6.642;2023-05-07T12:53:00;22.20;99.90
15949;DHT22;14848;50.954;6.642;2023-05-07T12:55:31;22.10;99.90
15949;DHT22;14848;50.954;6.642;2023-05-07T12:57:56;22.60;99.90
15949;DHT22;14848;50.954;6.642;2023-05-07T13:00:38;21.80;99.90
15949;DHT22;14848;50.954;6.642;2023-05-07T13:03:04;21.80;99.90
15949;DHT22;14848;50.954;6.642;2023-05-07T13:05:33;21.80;99.90
15949;DHT22;14848;50.954;6.642;2023-05-07T13:07:59;21.80;99.90
15949;DHT22;14848;50.954;6.642;2023-05-07T13:10:25;21.80;99.90
15949;DHT22;14848;50.954;6.642;2023-05-07T13:12:51;21.70;99.90
15949;DHT22;14848;50.954;6.642;2023-05-07T13:15:17;21.60;99.90
15949;DHT22;14848;50.954;6.642;2023-05-07T13:17:42;21.50;99.90
15949;DHT22;14848;50.954;6.642;2023-05-07T13:20:11;21.20;99.90
15949;DHT22;14848;50.954;6.642;2023-05-07T13:22:39;21.10;99.90
15949;DHT22;14848;50.954;6.642;2023-05-07T13:25:05;21.00;99.90
15949;DHT22;14848;50.954;6.642;2023-05-07T13:27:31;20.80;99.90
15949;DHT22;14848;50.954;6.642;2023-05-07T13:29:57;20.60;99.90
15949;DHT22;14848;50.954;6.642;2023-05-07T13:32:22;20.60;99.90
15949;DHT22;14848;50.954;6.642;2023-05-07T13:34:48;20.60;99.90
15949;DHT22;14848;50.954;6.642;2023-05-07T13:37:14;20.50;99.90
15949;DHT22;14848;50.954;6.642;2023-05-07T13:39:39;20.40;99.90
15949;DHT22;14848;50.954;6.642;2023-05-07T13:42:06;20.30;99.90
15949;DHT22;14848;50.954;6.642;2023-05-07T13:44:32;20.10;99.90
15949;DHT22;14848;50.954;6.642;2023-05-07T13:46:57;19.90;99.90
15949;DHT22;14848;50.954;6.642;2023-05-07T13:49:23;19.70;99.90
15949;DHT22;14848;50.954;6.642;2023-05-07T13:51:49;19.50;99.90
15949;DHT22;14848;50.954;6.642;2023-05-07T13:54:15;19.20;99.90
15949;DHT22;14848;50.954;6.642;2023-05-07T13:56:41;19.00;99.90
15949;DHT22;14848;50.954;6.642;2023-05-07T13:59:07;18.80;99.90
15949;DHT22;14848;50.954;6.642;2023-05-07T14:01:33;18.80;99.90
15949;DHT22;14848;50.954;6.642;2023-05-07T14:03:58;18.80;99.90
15949;DHT22;14848;50.954;6.642;2023-05-07T14:06:25;18.80;99.90
15949;DHT22;14848;50.954;6.642;2023-05-07T14:08:51;18.90;99.90
15949;DHT22;14848;50.954;6.642;2023-05-07T14:11:17;19.00;99.90
15949;DHT22;14848;50.954;6.642;2023-05-07T14:13:42;19.30;99.90
15949;DHT22;14848;50.954;6.642;2023-05-07T14:16:08;18.80;99.90
15949;DHT22;14848;50.954;6.642;2023-05-07T14:18:34;18.70;99.90
15949;DHT22;14848;50.954;6.642;2023-05-07T14:21:00;18.60;99.90
15949;DHT22;14848;50.954;6.642;2023-05-07T14:23:26;18.60;99.90
15949;DHT22;14848;50.954;6.642;2023-05-07T14:25:54;18.60;99.90
15949;DHT22;14848;50.954;6.642;2023-05-07T14:28:21;18.40;99.90
15949;DHT22;14848;50.954;6.642;2023-05-07T14:30:48;18.40;99.90
15949;DHT22;14848;50.954;6.642;2023-05-07T14:33:13;18.40;99.90
15949;DHT22;14848;50.954;6.642;2023-05-07T14:35:39;18.30;99.90
15949;DHT22;14848;50.954;6.642;2023-05-07T14:38:04;18.30;99.90
15949;DHT22;14848;50.954;6.642;2023-05-07T14:40:30;18.30;99.90
15949;DHT22;14848;50.954;6.642;2023-05-07T14:42:56;18.30;99.90
15949;DHT22;14848;50.954;6.642;2023-05-07T14:45:23;18.40;99.90
15949;DHT22;14848;50.954;6.642;2023-05-07T14:47:48;18.50;99.90
15949;DHT22;14848;50.954;6.642;2023-05-07T14:50:14;18.60;99.90
15949;DHT22;14848;50.954;6.642;2023-05-07T14:52:40;18.80;99.90
15949;DHT22;14848;50.954;6.642;2023-05-07T14:55:06;18.90;99.90
15949;DHT22;14848;50.954;6.642;2023-05-07T14:57:31;19.00;99.90
15949;DHT22;14848;50.954;6.642;2023-05-07T15:00:03;19.00;99.90
15949;DHT22;14848;50.954;6.642;2023-05-07T15:02:30;19.30;99.90
15949;DHT22;14848;50.954;6.642;2023-05-07T15:04:56;19.40;99.90
15949;DHT22;14848;50.954;6.642;2023-05-07T15:07:21;19.40;99.90
15949;DHT22;14848;50.954;6.642;2023-05-07T15:09:47;19.50;99.90
15949;DHT22;14848;50.954;6.642;2023-05-07T15:12:13;19.60;99.90
15949;DHT22;14848;50.954;6.642;2023-05-07T15:14:39;19.70;99.90
15949;DHT22;14848;50.954;6.642;2023-05-07T15:17:04;19.90;99.90
15949;DHT22;14848;50.954;6.642;2023-05-07T15:19:30;19.90;99.90
15949;DHT22;14848;50.954;6.642;2023-05-07T15:22:00;19.90;99.90
15949;DHT22;14848;50.954;6.642;2023-05-07T15:24:29;19.90;99.90
15949;DHT22;14848;50.954;6.642;2023-05-07T15:26:55;19.90;99.90
15949;DHT22;14848;50.954;6.642;2023-05-07T15:29:21;20.00;99.90
15949;DHT22;14848;50.954;6.642;2023-05-07T15:31:46;20.20;99.90
15949;DHT22;14848;50.954;6.642;2023-05-07T15:34:12;20.10;99.90
15949;DHT22;14848;50.954;6.642;2023-05-07T15:36:40;20.30;99.90
15949;DHT22;14848;50.954;6.642;2023-05-07T15:39:06;19.90;99.90
15949;DHT22;14848;50.954;6.642;2023-05-07T15:41:31;19.90;99.90
15949;DHT22;14848;50.954;6.642;2023-05-07T15:43:57;19.90;99.90
15949;DHT22;14848;50.954;6.642;2023-05-07T15:46:24;20.00;99.90
15949;DHT22;14848;50.954;6.642;2023-05-07T15:48:51;20.00;99.90
15949;DHT22;14848;50.954;6.642;2023-05-07T15:51:17;20.00;99.90
15949;DHT22;14848;50.954;6.642;2023-05-07T15:53:44;20.00;99.90
15949;DHT22;14848;50.954;6.642;2023-05-07T15:56:09;20.00;99.90
15949;DHT22;14848;50.954;6.642;2023-05-07T15:58:35;20.10;99.90
15949;DHT22;14848;50.954;6.642;2023-05-07T16:01:01;20.20;99.90
15949;DHT22;14848;50.954;6.642;2023-05-07T16:03:27;20.30;99.90
15949;DHT22;14848;50.954;6.642;2023-05-07T16:05:54;20.20;99.90
15949;DHT22;14848;50.954;6.642;2023-05-07T16:08:22;20.10;99.90
15949;DHT22;14848;50.954;6.642;2023-05-07T16:10:48;20.00;99.90
15949;DHT22;14848;50.954;6.642;2023-05-07T16:13:13;19.90;99.90
15949;DHT22;14848;50.954;6.642;2023-05-07T16:15:43;19.90;99.90
15949;DHT22;14848;50.954;6.642;2023-05-07T16:18:09;19.90;99.90
15949;DHT22;14848;50.954;6.642;2023-05-07T16:20:36;19.90;99.90
15949;DHT22;14848;50.954;6.642;2023-05-07T16:23:02;20.00;99.90
15949;DHT22;14848;50.954;6.642;2023-05-07T16:25:28;20.00;99.90
15949;DHT22;14848;50.954;6.642;2023-05-07T16:27:54;20.10;99.90
15949;DHT22;14848;50.954;6.642;2023-05-07T16:30:20;20.10;99.90
15949;DHT22;14848;50.954;6.642;2023-05-07T16:32:46;20.10;99.90
15949;DHT22;14848;50.954;6.642;2023-05-07T16:35:12;20.00;99.90
15949;DHT22;14848;50.954;6.642;2023-05-07T16:37:41;19.90;99.90
15949;DHT22;14848;50.954;6.642;2023-05-07T16:40:07;19.80;99.90
15949;DHT22;14848;50.954;6.642;2023-05-07T16:42:34;19.70;99.90
15949;DHT22;14848;50.954;6.642;2023-05-07T16:45:01;19.70;99.90
15949;DHT22;14848;50.954;6.642;2023-05-07T16:47:26;19.60;99.90
15949;DHT22;14848;50.954;6.642;2023-05-07T16:49:53;19.60;99.90
15949;DHT22;14848;50.954;6.642;2023-05-07T16:52:18;19.60;99.90
15949;DHT22;14848;50.954;6.642;2023-05-07T16:54:44;19.50;99.90
15949;DHT22;14848;50.954;6.642;2023-05-07T16:57:10;19.40;99.90
15949;DHT22;14848;50.954;6.642;2023-05-07T16:59:36;19.40;99.90
15949;DHT22;14848;50.954;6.642;2023-05-07T17:02:01;19.40;99.90
15949;DHT22;14848;50.954;6.642;2023-05-07T17:04:27;19.40;99.90
15949;DHT22;14848;50.954;6.642;2023-05-07T17:06:54;19.40;99.90
15949;DHT22;14848;50.954;6.642;2023-05-07T17:09:21;19.40;99.90
15949;DHT22;14848;50.954;6.642;2023-05-07T17:11:47;19.30;99.90
15949;DHT22;14848;50.954;6.642;2023-05-07T17:14:12;19.30;99.90
15949;DHT22;14848;50.954;6.642;2023-05-07T17:16:38;19.30;99.90
15949;DHT22;14848;50.954;6.642;2023-05-07T17:19:04;20.00;99.90
15949;DHT22;14848;50.954;6.642;2023-05-07T17:21:30;19.20;99.90
15949;DHT22;14848;50.954;6.642;2023-05-07T17:23:56;19.20;99.90
15949;DHT22;14848;50.954;6.642;2023-05-07T17:26:22;19.20;99.90
15949;DHT22;14848;50.954;6.642;2023-05-07T17:28:47;19.20;99.90
15949;DHT22;14848;50.954;6.642;2023-05-07T17:31:14;19.10;99.90
15949;DHT22;14848;50.954;6.642;2023-05-07T17:33:39;19.00;99.90
15949;DHT22;14848;50.954;6.642;2023-05-07T17:36:05;19.00;99.90
15949;DHT22;14848;50.954;6.642;2023-05-07T17:38:33;19.00;99.90
15949;DHT22;14848;50.954;6.642;2023-05-07T17:40:59;18.90;99.90
15949;DHT22;14848;50.954;6.642;2023-05-07T17:43:27;18.80;99.90
15949;DHT22;14848;50.954;6.642;2023-05-07T17:45:53;18.40;99.90
15949;DHT22;14848;50.954;6.642;2023-05-07T17:48:19;18.80;99.90
15949;DHT22;14848;50.954;6.642;2023-05-07T17:50:45;18.80;99.90
15949;DHT22;14848;50.954;6.642;2023-05-07T17:53:11;18.70;99.90
15949;DHT22;14848;50.954;6.642;2023-05-07T17:55:43;18.70;99.90
15949;DHT22;14848;50.954;6.642;2023-05-07T17:58:09;18.70;99.90
15949;DHT22;14848;50.954;6.642;2023-05-07T18:00:35;18.60;99.90
15949;DHT22;14848;50.954;6.642;2023-05-07T18:03:02;18.70;99.90
15949;DHT22;14848;50.954;6.642;2023-05-07T18:05:28;18.70;99.90
15949;DHT22;14848;50.954;6.642;2023-05-07T18:07:55;18.60;99.90
15949;DHT22;14848;50.954;6.642;2023-05-07T18:10:21;18.60;99.90
15949;DHT22;14848;50.954;6.642;2023-05-07T18:12:48;18.60;99.90
15949;DHT22;14848;50.954;6.642;2023-05-07T18:15:13;18.60;99.90
15949;DHT22;14848;50.954;6.642;2023-05-07T18:17:39;18.60;99.90
15949;DHT22;14848;50.954;6.642;2023-05-07T18:20:05;18.60;99.90
15949;DHT22;14848;50.954;6.642;2023-05-07T18:22:33;18.60;99.90
15949;DHT22;14848;50.954;6.642;2023-05-07T18:24:59;18.50;99.90